createdAt,value
2018-12-13T03:38:18.603Z,15.00
2018-12-13T03:39:18.578Z,25.60
2018-12-13T03:41:11.490Z,27.70
2018-12-13T03:42:11.468Z,30.80
2018-12-13T03:44:03.373Z,26.90
2018-12-13T03:45:03.364Z,27.70
2018-12-13T03:46:55.285Z,26.70
2018-12-13T03:47:55.269Z,27.00
2018-12-13T03:49:47.692Z,26.10
2018-12-13T03:50:47.684Z,25.30
2018-12-13T03:52:39.573Z,30.10
2018-12-13T03:53:39.589Z,25.20
2018-12-13T03:55:31.501Z,24.20
2018-12-13T03:56:31.480Z,23.60
2018-12-13T03:58:23.381Z,29.50
2018-12-13T03:59:23.384Z,36.30
2018-12-13T04:01:15.294Z,24.90
2018-12-13T04:02:15.285Z,26.10
2018-12-13T04:04:07.204Z,23.80
2018-12-13T04:05:07.188Z,24.50
2018-12-13T04:06:59.306Z,23.00
2018-12-13T04:07:59.291Z,22.80
2018-12-13T04:09:51.206Z,23.50
2018-12-13T04:10:51.195Z,23.30
2018-12-13T04:12:43.094Z,23.50
2018-12-13T04:13:43.099Z,24.20
2018-12-13T04:15:35.020Z,25.80
2018-12-13T04:16:35.006Z,23.70
2018-12-13T04:18:26.908Z,24.50
2018-12-13T04:19:26.915Z,22.70
2018-12-13T04:21:19.341Z,25.60
2018-12-13T04:22:19.326Z,22.00
2018-12-13T04:24:11.224Z,26.10
2018-12-13T04:25:11.227Z,25.30
2018-12-13T04:27:03.648Z,24.70
2018-12-13T04:28:03.641Z,27.00
2018-12-13T04:29:56.057Z,26.60
2018-12-13T04:30:56.035Z,25.80
2018-12-13T04:32:48.437Z,25.20
2018-12-13T04:33:48.453Z,27.50
2018-12-13T04:35:40.374Z,28.20
2018-12-13T04:36:40.357Z,26.00
2018-12-13T04:38:32.271Z,27.70
2018-12-13T04:39:32.275Z,26.00
2018-12-13T04:41:24.689Z,29.30
2018-12-13T04:42:24.684Z,24.90
2018-12-13T04:44:16.575Z,25.80
2018-12-13T04:45:16.594Z,25.30
2018-12-13T04:47:08.520Z,26.80
2018-12-13T04:48:08.505Z,27.00
2018-12-13T04:50:00.438Z,27.70
2018-12-13T04:51:00.412Z,26.80
2018-12-13T04:52:52.331Z,27.50
2018-12-13T04:53:52.321Z,28.10
2018-12-13T04:55:44.246Z,28.20
2018-12-13T04:56:44.226Z,27.80
2018-12-13T04:58:36.136Z,26.10
2018-12-13T04:59:36.137Z,27.30
2018-12-13T05:01:28.071Z,27.30
2018-12-13T05:02:28.045Z,28.00
2018-12-13T05:04:19.948Z,28.60
2018-12-13T05:05:19.951Z,27.90
2018-12-13T05:07:11.870Z,28.20
2018-12-13T05:08:11.856Z,29.00
2018-12-13T05:10:03.767Z,26.50
2018-12-13T05:11:03.774Z,30.00
2018-12-13T05:12:55.684Z,30.30
2018-12-13T05:13:55.738Z,28.00
2018-12-13T05:15:47.601Z,28.40
2018-12-13T05:16:47.595Z,28.90
2018-12-13T05:18:39.497Z,27.80
2018-12-13T05:19:39.501Z,29.70
2018-12-13T05:21:31.425Z,29.80
2018-12-13T05:22:31.406Z,28.50
2018-12-13T05:24:23.329Z,28.90
2018-12-13T05:25:23.317Z,30.20
2018-12-13T05:27:15.248Z,28.80
2018-12-13T05:28:15.230Z,28.20
2018-12-13T05:30:07.194Z,26.40
2018-12-13T05:31:07.191Z,28.90
2018-12-13T05:32:59.135Z,26.40
2018-12-13T05:33:59.120Z,27.90
2018-12-13T05:35:51.068Z,29.30
2018-12-13T05:36:51.061Z,29.70
2018-12-13T05:38:42.962Z,31.90
2018-12-13T05:39:42.962Z,31.80
2018-12-13T05:41:34.894Z,32.40
2018-12-13T05:42:34.869Z,31.70
2018-12-13T05:44:26.775Z,39.30
2018-12-13T05:45:26.777Z,35.10
2018-12-13T05:47:18.704Z,34.30
2018-12-13T05:48:18.682Z,33.90
2018-12-13T05:50:10.594Z,30.90
2018-12-13T05:51:10.596Z,32.80
2018-12-13T05:53:02.525Z,29.70
2018-12-13T05:54:02.501Z,32.30
2018-12-13T05:55:54.445Z,32.40
2018-12-13T05:56:54.428Z,31.20
2018-12-13T05:58:46.342Z,31.60
2018-12-13T05:59:46.349Z,32.30
2018-12-13T06:01:38.326Z,29.10
2018-12-13T06:02:38.259Z,33.70
2018-12-13T06:04:30.166Z,32.20
2018-12-13T06:05:30.163Z,30.10
2018-12-13T06:07:22.089Z,29.80
2018-12-13T06:08:22.063Z,30.70
2018-12-13T06:10:13.970Z,31.30
2018-12-13T06:11:13.978Z,30.20
2018-12-13T06:13:06.238Z,29.10
2018-12-13T06:14:05.896Z,27.60
2018-12-13T06:15:58.344Z,29.80
2018-12-13T06:16:58.317Z,27.70
2018-12-13T06:18:50.225Z,28.60
2018-12-13T06:19:50.234Z,32.90
2018-12-13T06:21:42.157Z,29.10
2018-12-13T06:22:42.136Z,28.00
2018-12-13T06:24:34.034Z,30.10
2018-12-13T06:25:34.049Z,27.80
2018-12-13T06:27:25.961Z,30.60
2018-12-13T06:28:25.942Z,26.00
2018-12-13T06:30:17.847Z,27.00
2018-12-13T06:31:17.851Z,29.10
2018-12-13T06:33:09.783Z,30.10
2018-12-13T06:34:09.764Z,29.70
2018-12-13T06:36:01.689Z,31.60
2018-12-13T06:37:01.679Z,29.60
2018-12-13T06:38:53.624Z,32.30
2018-12-13T06:39:53.586Z,32.30
2018-12-13T06:41:45.520Z,33.10
2018-12-13T06:42:45.506Z,31.00
2018-12-13T06:44:37.407Z,34.00
2018-12-13T06:45:37.411Z,33.10
2018-12-13T06:47:29.327Z,32.80
2018-12-13T06:48:29.314Z,33.60
2018-12-13T06:50:21.240Z,36.30
2018-12-13T06:51:21.251Z,37.10
2018-12-13T06:53:13.168Z,33.80
2018-12-13T06:54:13.151Z,35.90
2018-12-13T06:56:05.068Z,36.50
2018-12-13T06:57:05.061Z,33.20
2018-12-13T06:58:57.020Z,33.70
2018-12-13T06:59:56.985Z,34.20
2018-12-13T07:01:48.922Z,36.50
2018-12-13T07:02:48.913Z,35.50
2018-12-13T07:04:40.832Z,33.90
2018-12-13T07:05:40.834Z,32.40
2018-12-13T07:07:32.755Z,34.60
2018-12-13T07:08:32.757Z,35.30
2018-12-13T07:10:24.675Z,34.40
2018-12-13T07:11:24.678Z,34.20
2018-12-13T07:13:16.626Z,34.30
2018-12-13T07:14:16.594Z,36.40
2018-12-13T07:16:08.488Z,32.90
2018-12-13T07:17:08.497Z,33.40
2018-12-13T07:19:00.893Z,35.40
2018-12-13T07:20:00.903Z,35.90
2018-12-13T07:21:52.806Z,33.30
2018-12-13T07:22:52.821Z,33.20
2018-12-13T07:24:44.699Z,33.50
2018-12-13T07:25:44.693Z,32.90
2018-12-13T07:27:36.604Z,36.90
2018-12-13T07:28:36.596Z,34.60
2018-12-13T07:30:28.507Z,33.30
2018-12-13T07:31:28.517Z,37.20
2018-12-13T07:33:20.428Z,32.00
2018-12-13T07:34:20.422Z,33.80
2018-12-13T07:36:12.313Z,31.70
2018-12-13T07:37:12.321Z,32.70
2018-12-13T07:39:04.243Z,31.30
2018-12-13T07:40:04.220Z,33.20
2018-12-13T07:41:56.153Z,30.40
2018-12-13T07:42:56.138Z,29.80
2018-12-13T07:44:48.041Z,27.60
2018-12-13T07:45:48.045Z,30.00
2018-12-13T07:47:39.961Z,28.10
2018-12-13T07:48:39.941Z,29.30
2018-12-13T07:50:31.837Z,28.20
2018-12-13T07:51:31.847Z,28.40
2018-12-13T07:53:23.764Z,26.70
2018-12-13T07:54:23.740Z,27.80
2018-12-13T07:56:15.646Z,26.60
2018-12-13T07:57:15.648Z,25.70
2018-12-13T07:59:07.571Z,27.10
2018-12-13T08:00:07.558Z,26.60
2018-12-13T08:01:59.473Z,22.50
2018-12-13T08:02:59.475Z,23.50
2018-12-13T08:04:51.367Z,21.60
2018-12-13T08:05:51.370Z,24.00
2018-12-13T08:07:43.294Z,22.50
2018-12-13T08:08:43.271Z,22.40
2018-12-13T08:10:35.180Z,21.80
2018-12-13T08:11:35.184Z,22.70
2018-12-13T08:13:27.095Z,18.50
2018-12-13T08:14:27.081Z,21.20
2018-12-13T08:16:18.992Z,19.80
2018-12-13T08:17:18.999Z,20.80
2018-12-13T08:19:10.958Z,19.80
2018-12-13T08:20:10.914Z,17.90
2018-12-13T08:22:02.866Z,19.20
2018-12-13T08:23:02.814Z,20.00
2018-12-13T08:24:54.730Z,19.90
2018-12-13T08:25:54.720Z,19.20
2018-12-13T08:27:46.639Z,18.60
2018-12-13T08:28:46.621Z,19.00
2018-12-13T08:30:38.522Z,17.80
2018-12-13T08:31:38.529Z,18.10
2018-12-13T08:33:30.448Z,16.30
2018-12-13T08:34:30.435Z,15.90
2018-12-13T08:36:22.369Z,17.00
2018-12-13T08:37:22.343Z,16.70
2018-12-13T08:39:14.259Z,17.30
2018-12-13T08:40:14.250Z,18.10
2018-12-13T08:42:06.143Z,15.00
2018-12-13T08:43:06.154Z,16.90
2018-12-13T08:44:06.157Z,16.40
2018-12-13T08:45:06.175Z,17.10
2018-12-13T08:46:06.178Z,15.70
2018-12-13T08:47:06.191Z,16.80
2018-12-13T08:48:06.198Z,17.00
2018-12-13T08:49:06.209Z,18.20
2018-12-13T08:50:06.221Z,16.00
2018-12-13T08:51:06.232Z,14.70
2018-12-13T08:52:06.235Z,16.90
2018-12-13T08:53:06.252Z,16.90
2018-12-13T08:54:06.266Z,16.40
2018-12-13T08:55:06.329Z,16.60
2018-12-13T08:56:06.281Z,17.00
2018-12-13T08:57:06.294Z,14.40
2018-12-13T08:58:06.304Z,19.50
2018-12-13T08:59:06.313Z,17.40
2018-12-13T09:00:06.327Z,16.20
2018-12-13T09:01:06.335Z,14.20
2018-12-13T09:02:06.343Z,14.70
2018-12-13T09:03:06.347Z,17.30
2018-12-13T09:04:06.356Z,13.70
2018-12-13T09:05:06.372Z,14.00
2018-12-13T09:06:06.380Z,15.50
2018-12-13T09:07:06.388Z,15.90
2018-12-13T09:08:06.398Z,16.70
2018-12-13T09:09:06.414Z,15.60
2018-12-13T09:10:06.426Z,14.00
2018-12-13T09:11:06.430Z,13.70
2018-12-13T09:12:06.442Z,14.90
2018-12-13T09:13:06.453Z,15.50
2018-12-13T09:14:06.461Z,16.10
2018-12-13T09:15:06.471Z,13.90
2018-12-13T09:16:06.484Z,14.50
2018-12-13T09:17:06.489Z,14.10
2018-12-13T09:18:06.507Z,14.00
2018-12-13T09:19:06.509Z,12.60
2018-12-13T09:20:06.531Z,15.80
2018-12-13T09:21:06.532Z,13.20
2018-12-13T09:22:06.557Z,16.00
2018-12-13T09:23:06.561Z,14.70
2018-12-13T09:24:06.563Z,13.30
2018-12-13T09:25:06.589Z,13.70
2018-12-13T09:26:06.594Z,13.10
2018-12-13T09:27:06.601Z,12.80
2018-12-13T09:28:06.611Z,13.90
2018-12-13T09:29:06.617Z,14.40
2018-12-13T09:30:06.624Z,12.50
2018-12-13T09:31:06.650Z,12.00
2018-12-13T09:32:06.645Z,11.40
2018-12-13T09:33:06.666Z,12.00
2018-12-13T09:34:06.668Z,13.30
2018-12-13T09:35:06.679Z,13.40
2018-12-13T09:36:06.689Z,13.80
2018-12-13T09:37:06.703Z,13.10
2018-12-13T09:38:06.711Z,13.10
2018-12-13T09:39:06.716Z,14.80
2018-12-13T09:40:06.736Z,13.50
2018-12-13T09:41:06.737Z,12.60
2018-12-13T09:42:06.754Z,12.70
2018-12-13T09:43:06.760Z,15.80
2018-12-13T09:44:06.772Z,12.90
2018-12-13T09:45:06.782Z,12.40
2018-12-13T09:46:06.792Z,12.50
2018-12-13T09:47:06.799Z,14.40
2018-12-13T09:48:06.815Z,12.30
2018-12-13T09:49:06.823Z,13.20
2018-12-13T09:50:06.848Z,12.70
2018-12-13T09:51:06.846Z,15.90
2018-12-13T09:52:06.858Z,14.60
2018-12-13T09:53:06.866Z,15.70
2018-12-13T09:54:06.872Z,12.00
2018-12-13T09:55:06.880Z,13.10
2018-12-13T09:56:06.916Z,11.40
2018-12-13T09:57:06.916Z,12.50
2018-12-13T09:58:06.922Z,12.00
2018-12-13T09:59:06.927Z,12.80
2018-12-13T10:00:06.958Z,12.40
2018-12-13T10:01:06.970Z,14.20
2018-12-13T10:02:06.961Z,12.90
2018-12-13T10:03:06.971Z,11.90
2018-12-13T10:04:06.991Z,11.60
2018-12-13T10:05:07.015Z,12.10
2018-12-13T10:06:06.997Z,13.00
2018-12-13T10:07:07.005Z,12.90
2018-12-13T10:08:07.053Z,12.70
2018-12-13T10:09:07.096Z,11.40
2018-12-13T10:10:07.053Z,11.30
2018-12-13T10:11:07.052Z,11.60
2018-12-13T10:12:07.072Z,11.20
2018-12-13T10:13:07.073Z,12.10
2018-12-13T10:14:07.087Z,11.80
2018-12-13T10:15:07.163Z,14.70
2018-12-13T10:16:07.142Z,13.10
2018-12-13T10:17:07.117Z,11.20
2018-12-13T10:18:07.136Z,11.10
2018-12-13T10:19:07.126Z,12.70
2018-12-13T10:20:07.144Z,13.20
2018-12-13T10:21:07.155Z,13.00
2018-12-13T10:22:11.669Z,11.00
2018-12-13T10:23:07.226Z,10.80
2018-12-13T10:24:07.189Z,12.10
2018-12-13T10:25:07.204Z,12.70
2018-12-13T10:26:07.199Z,13.10
2018-12-13T10:27:07.241Z,12.40
2018-12-13T10:28:07.255Z,12.70
2018-12-13T10:29:07.241Z,12.30
2018-12-13T10:30:07.250Z,11.80
2018-12-13T10:31:07.259Z,11.40
2018-12-13T10:32:07.267Z,13.80
2018-12-13T10:33:07.279Z,13.60
2018-12-13T10:34:07.286Z,11.70
2018-12-13T10:35:11.284Z,11.80
2018-12-13T10:36:07.315Z,11.90
2018-12-13T10:37:07.319Z,12.30
2018-12-13T10:38:07.333Z,14.60
2018-12-13T10:39:07.338Z,11.50
2018-12-13T10:40:07.353Z,12.00
2018-12-13T10:41:07.357Z,11.20
2018-12-13T10:42:07.383Z,11.60
2018-12-13T10:43:07.387Z,11.70
2018-12-13T10:44:07.400Z,12.40
2018-12-13T10:45:07.404Z,12.20
2018-12-13T10:46:07.417Z,13.30
2018-12-13T10:47:07.425Z,12.30
2018-12-13T10:48:07.438Z,10.80
2018-12-13T10:49:07.459Z,12.20
2018-12-13T10:50:07.456Z,12.00
2018-12-13T10:51:07.466Z,16.20
2018-12-13T10:52:07.486Z,12.20
2018-12-13T10:53:07.493Z,11.30
2018-12-13T10:55:07.516Z,15.20
2018-12-13T10:56:07.538Z,12.00
2018-12-13T10:57:07.653Z,13.10
2018-12-13T10:58:07.541Z,13.70
2018-12-13T10:59:07.571Z,13.40
2018-12-13T11:00:07.564Z,14.80
2018-12-13T11:01:28.591Z,12.20
2018-12-13T11:02:07.584Z,11.70
2018-12-13T11:03:07.592Z,11.80
2018-12-13T11:04:07.729Z,13.60
2018-12-13T11:05:07.624Z,12.90
2018-12-13T11:06:07.638Z,12.90
2018-12-13T11:07:28.653Z,13.70
2018-12-13T11:08:07.650Z,13.00
2018-12-13T11:09:07.656Z,12.50
2018-12-13T11:10:08.217Z,11.50
2018-12-13T11:11:07.685Z,13.30
2018-12-13T11:12:07.691Z,13.10
2018-12-13T11:13:28.714Z,13.80
2018-12-13T11:14:07.722Z,14.10
2018-12-13T11:15:07.767Z,11.70
2018-12-13T11:16:07.736Z,11.90
2018-12-13T11:17:07.748Z,12.00
2018-12-13T11:18:07.762Z,12.60
2018-12-13T11:19:28.806Z,11.90
2018-12-13T11:20:07.784Z,14.10
2018-12-13T11:21:07.790Z,12.20
2018-12-13T11:22:07.803Z,13.10
2018-12-13T11:23:07.804Z,13.30
2018-12-13T11:24:07.819Z,13.10
2018-12-13T11:25:28.845Z,13.20
2018-12-13T11:26:07.843Z,12.20
2018-12-13T11:27:07.859Z,13.20
2018-12-13T11:28:07.865Z,13.00
2018-12-13T11:29:07.877Z,13.40
2018-12-13T11:30:07.884Z,12.40
2018-12-13T11:31:28.905Z,12.90
2018-12-13T11:32:07.910Z,12.90
2018-12-13T11:33:07.912Z,14.30
2018-12-13T11:34:07.924Z,16.90
2018-12-13T11:35:07.931Z,12.70
2018-12-13T11:36:07.946Z,12.10
2018-12-13T11:37:28.980Z,13.50
2018-12-13T11:38:07.966Z,10.90
2018-12-13T11:39:07.984Z,12.50
2018-12-13T11:40:07.989Z,11.90
2018-12-13T11:41:08.007Z,12.50
2018-12-13T11:42:08.022Z,14.30
2018-12-13T11:43:29.043Z,12.10
2018-12-13T11:44:08.043Z,12.20
2018-12-13T11:45:08.054Z,12.80
2018-12-13T11:46:08.059Z,11.10
2018-12-13T11:47:08.088Z,11.60
2018-12-13T11:48:08.077Z,13.80
2018-12-13T11:49:29.096Z,11.50
2018-12-13T11:50:08.098Z,13.30
2018-12-13T11:51:08.108Z,12.60
2018-12-13T11:52:08.145Z,13.50
2018-12-13T11:53:08.128Z,11.90
2018-12-13T11:54:08.139Z,12.00
2018-12-13T11:55:29.162Z,12.60
2018-12-13T11:56:08.165Z,12.40
2018-12-13T11:57:08.172Z,12.50
2018-12-13T11:58:08.190Z,12.50
2018-12-13T11:59:08.192Z,12.50
2018-12-13T12:00:08.202Z,12.90
2018-12-13T12:01:29.228Z,13.70
2018-12-13T12:02:08.235Z,12.60
2018-12-13T12:03:08.245Z,11.60
2018-12-13T12:04:08.251Z,13.80
2018-12-13T12:05:08.260Z,11.70
2018-12-13T12:06:08.273Z,12.00
2018-12-13T12:07:29.302Z,13.00
2018-12-13T12:08:08.296Z,12.70
2018-12-13T12:09:12.200Z,12.50
2018-12-13T12:10:08.330Z,11.40
2018-12-13T12:11:08.354Z,13.60
2018-12-13T12:12:08.338Z,13.10
2018-12-13T12:13:29.365Z,11.60
2018-12-13T12:14:08.358Z,12.60
2018-12-13T12:15:08.445Z,12.10
2018-12-13T12:16:08.377Z,13.70
2018-12-13T12:17:08.389Z,12.80
2018-12-13T12:18:08.403Z,11.80
2018-12-13T12:19:29.432Z,10.80
2018-12-13T12:20:08.428Z,12.00
2018-12-13T12:21:08.433Z,11.40
2018-12-13T12:22:08.443Z,12.80
2018-12-13T12:23:08.455Z,12.10
2018-12-13T12:24:08.474Z,11.40
2018-12-13T12:25:29.492Z,12.70
2018-12-13T12:26:08.491Z,12.20
2018-12-13T12:27:08.654Z,12.10
2018-12-13T12:28:08.513Z,10.60
2018-12-13T12:29:08.521Z,12.20
2018-12-13T12:30:08.531Z,12.10
2018-12-13T12:31:29.563Z,11.80
2018-12-13T12:32:08.558Z,12.00
2018-12-13T12:33:08.575Z,12.90
2018-12-13T12:34:08.589Z,13.40
2018-12-13T12:35:08.608Z,14.60
2018-12-13T12:36:08.600Z,13.60
2018-12-13T12:37:29.623Z,10.90
2018-12-13T12:38:08.628Z,11.60
2018-12-13T12:39:08.635Z,13.40
2018-12-13T12:40:08.650Z,11.50
2018-12-13T12:41:08.658Z,11.60
2018-12-13T12:42:08.685Z,11.40
2018-12-13T12:43:29.693Z,12.80
2018-12-13T12:44:08.685Z,13.50
2018-12-13T12:45:08.699Z,13.30
2018-12-13T12:46:10.161Z,13.00
2018-12-13T12:47:08.752Z,11.30
2018-12-13T12:48:08.937Z,11.70
2018-12-13T12:49:30.005Z,11.80
2018-12-13T12:50:08.757Z,12.40
2018-12-13T12:51:08.773Z,12.50
2018-12-13T12:52:08.794Z,11.80
2018-12-13T12:53:08.797Z,12.80
2018-12-13T12:54:08.963Z,13.00
2018-12-13T12:55:30.082Z,12.10
2018-12-13T12:56:08.825Z,12.10
2018-12-13T12:57:09.161Z,13.40
2018-12-13T12:58:08.954Z,11.90
2018-12-13T12:59:08.846Z,13.90
2018-12-13T13:00:08.872Z,12.20
2018-12-13T13:01:29.888Z,12.70
2018-12-13T13:02:08.880Z,11.30
2018-12-13T13:03:08.899Z,13.60
2018-12-13T13:04:08.953Z,13.30
2018-12-13T13:05:08.940Z,12.70
2018-12-13T13:06:09.029Z,12.10
2018-12-13T13:07:30.115Z,11.70
2018-12-13T13:08:08.961Z,11.90
2018-12-13T13:09:08.964Z,13.80
2018-12-13T13:10:08.973Z,12.90
2018-12-13T13:11:08.978Z,12.60
2018-12-13T13:12:08.992Z,10.60
2018-12-13T13:13:30.579Z,14.50
2018-12-13T13:14:09.021Z,18.40
2018-12-13T13:15:09.034Z,11.80
2018-12-13T13:16:09.043Z,12.90
2018-12-13T13:17:09.052Z,12.90
2018-12-13T13:18:09.063Z,12.50
2018-12-13T13:19:30.094Z,11.60
2018-12-13T13:20:09.090Z,12.50
2018-12-13T13:21:09.102Z,13.30
2018-12-13T13:22:09.111Z,13.50
2018-12-13T13:23:09.121Z,13.80
2018-12-13T13:24:09.129Z,12.60
2018-12-13T13:25:30.155Z,14.10
2018-12-13T13:26:09.147Z,13.80
2018-12-13T13:27:09.153Z,12.50
2018-12-13T13:28:09.168Z,12.70
2018-12-13T13:29:09.184Z,12.80
2018-12-13T13:30:09.236Z,15.00
2018-12-13T13:31:30.377Z,14.70
2018-12-13T13:32:09.351Z,14.40
2018-12-13T13:33:09.277Z,14.90
2018-12-13T13:34:09.289Z,13.20
2018-12-13T13:35:09.243Z,13.20
2018-12-13T13:36:09.252Z,12.40
2018-12-13T13:37:30.293Z,13.30
2018-12-13T13:38:09.291Z,13.60
2018-12-13T13:39:09.294Z,14.10
2018-12-13T13:40:09.331Z,13.80
2018-12-13T13:41:09.324Z,14.80
2018-12-13T13:42:09.346Z,14.70
2018-12-13T13:43:30.350Z,15.90
2018-12-13T13:44:09.356Z,14.60
2018-12-13T13:45:09.356Z,14.30
2018-12-13T13:46:09.383Z,15.30
2018-12-13T13:47:09.423Z,12.90
2018-12-13T13:48:09.390Z,12.90
2018-12-13T13:49:30.423Z,13.70
2018-12-13T13:50:09.407Z,11.60
2018-12-13T13:51:09.433Z,15.70
2018-12-13T13:52:09.450Z,15.40
2018-12-13T13:53:09.439Z,13.10
2018-12-13T13:54:09.453Z,13.50
2018-12-13T13:55:30.488Z,15.30
2018-12-13T13:56:09.477Z,13.90
2018-12-13T13:57:09.490Z,13.20
2018-12-13T13:58:09.498Z,15.30
2018-12-13T13:59:09.509Z,13.20
2018-12-13T14:00:09.531Z,13.70
2018-12-13T14:01:30.592Z,16.80
2018-12-13T14:02:09.549Z,14.60
2018-12-13T14:03:09.550Z,13.10
2018-12-13T14:04:09.572Z,15.40
2018-12-13T14:05:09.620Z,14.00
2018-12-13T14:06:09.614Z,14.80
2018-12-13T14:07:30.605Z,16.10
2018-12-13T14:08:09.620Z,14.10
2018-12-13T14:09:09.616Z,13.10
2018-12-13T14:10:09.630Z,12.20
2018-12-13T14:11:09.636Z,14.60
2018-12-13T14:12:09.659Z,13.70
2018-12-13T14:13:30.765Z,17.10
2018-12-13T14:14:09.670Z,15.50
2018-12-13T14:15:09.827Z,14.50
2018-12-13T14:16:09.740Z,14.50
2018-12-13T14:17:09.740Z,15.30
2018-12-13T14:18:09.779Z,14.70
2018-12-13T14:19:30.737Z,15.50
2018-12-13T14:20:09.736Z,14.80
2018-12-13T14:21:09.760Z,14.80
2018-12-13T14:22:09.755Z,13.80
2018-12-13T14:23:09.770Z,17.20
2018-12-13T14:24:09.792Z,13.90
2018-12-13T14:25:30.846Z,13.00
2018-12-13T14:26:09.874Z,14.50
2018-12-13T14:27:10.044Z,16.60
2018-12-13T14:28:09.960Z,16.70
2018-12-13T14:29:09.896Z,15.60
2018-12-13T14:30:09.992Z,14.70
2018-12-13T14:31:30.906Z,14.00
2018-12-13T14:32:09.912Z,14.20
2018-12-13T14:33:09.946Z,14.10
2018-12-13T14:34:09.886Z,13.30
2018-12-13T14:35:09.898Z,14.60
2018-12-13T14:36:10.064Z,16.70
2018-12-13T14:37:30.982Z,14.30
2018-12-13T14:38:09.999Z,14.10
2018-12-13T14:39:09.978Z,16.90
2018-12-13T14:40:11.160Z,14.90
2018-12-13T14:41:10.071Z,15.10
2018-12-13T14:42:10.100Z,15.70
2018-12-13T14:43:31.024Z,15.90
2018-12-13T14:44:09.994Z,19.30
2018-12-13T14:45:10.013Z,16.10
2018-12-13T14:46:10.016Z,15.00
2018-12-13T14:47:10.025Z,16.60
2018-12-13T14:48:10.054Z,14.50
2018-12-13T14:49:31.061Z,14.80
2018-12-13T14:50:10.064Z,17.60
2018-12-13T14:51:10.075Z,15.70
2018-12-13T14:52:10.077Z,17.00
2018-12-13T14:53:10.095Z,15.50
2018-12-13T14:54:10.100Z,17.60
2018-12-13T14:55:31.123Z,17.40
2018-12-13T14:56:10.140Z,15.80
2018-12-13T14:57:10.132Z,16.30
2018-12-13T14:58:10.154Z,16.70
2018-12-13T14:59:10.162Z,16.40
2018-12-13T15:00:10.175Z,16.40
2018-12-13T15:01:31.193Z,14.40
2018-12-13T15:02:10.197Z,15.90
2018-12-13T15:03:10.206Z,17.30
2018-12-13T15:04:10.210Z,14.50
2018-12-13T15:05:10.256Z,16.40
2018-12-13T15:06:10.227Z,18.30
2018-12-13T15:07:31.251Z,16.80
2018-12-13T15:08:10.249Z,17.60
2018-12-13T15:09:10.262Z,16.70
2018-12-13T15:10:10.285Z,16.10
2018-12-13T15:11:10.304Z,17.30
2018-12-13T15:12:10.299Z,17.10
2018-12-13T15:13:31.313Z,17.20
2018-12-13T15:14:10.320Z,18.20
2018-12-13T15:15:10.322Z,18.20
2018-12-13T15:16:10.353Z,16.90
2018-12-13T15:17:10.348Z,16.80
2018-12-13T15:18:10.364Z,19.00
2018-12-13T15:19:31.386Z,18.20
2018-12-13T15:20:10.373Z,19.20
2018-12-13T15:21:10.387Z,17.50
2018-12-13T15:22:10.395Z,17.00
2018-12-13T15:23:10.412Z,17.00
2018-12-13T15:24:10.421Z,16.40
2018-12-13T15:25:31.441Z,20.50
2018-12-13T15:26:10.439Z,17.90
2018-12-13T15:27:10.449Z,18.60
2018-12-13T15:28:10.464Z,17.40
2018-12-13T15:29:10.467Z,17.90
2018-12-13T15:30:10.488Z,16.50
2018-12-13T15:31:31.506Z,18.70
2018-12-13T15:32:10.530Z,18.80
2018-12-13T15:33:10.511Z,20.00
2018-12-13T15:34:10.522Z,21.40
2018-12-13T15:35:10.528Z,20.70
2018-12-13T15:36:10.547Z,19.40
2018-12-13T15:37:31.683Z,18.30
2018-12-13T15:38:10.564Z,19.10
2018-12-13T15:39:10.748Z,19.90
2018-12-13T15:40:10.581Z,19.70
2018-12-13T15:41:10.602Z,20.40
2018-12-13T15:42:10.610Z,19.90
2018-12-13T15:43:31.677Z,18.10
2018-12-13T15:44:10.631Z,20.10
2018-12-13T15:45:10.633Z,19.50
2018-12-13T15:46:10.802Z,20.30
2018-12-13T15:47:10.786Z,18.90
2018-12-13T15:48:10.667Z,20.60
2018-12-13T15:49:31.691Z,20.50
2018-12-13T15:50:10.699Z,21.70
2018-12-13T15:51:10.698Z,18.60
2018-12-13T15:52:10.718Z,16.50
2018-12-13T15:53:10.717Z,19.10
2018-12-13T15:54:10.735Z,19.00
2018-12-13T15:55:31.753Z,19.20
2018-12-13T15:56:10.750Z,19.20
2018-12-13T15:57:10.765Z,18.80
2018-12-13T15:58:10.828Z,21.40
2018-12-13T15:59:10.778Z,22.60
2018-12-13T16:00:10.794Z,19.50
2018-12-13T16:01:31.814Z,21.30
2018-12-13T16:02:10.808Z,20.00
2018-12-13T16:03:10.977Z,20.40
2018-12-13T16:04:10.829Z,23.40
2018-12-13T16:05:10.847Z,20.70
2018-12-13T16:06:10.917Z,21.10
2018-12-13T16:07:31.870Z,20.40
2018-12-13T16:08:10.881Z,18.30
2018-12-13T16:09:10.937Z,22.60
2018-12-13T16:10:10.893Z,19.60
2018-12-13T16:11:10.910Z,18.00
2018-12-13T16:12:10.918Z,18.80
2018-12-13T16:13:31.965Z,18.80
2018-12-13T16:14:10.942Z,18.00
2018-12-13T16:15:10.940Z,19.40
2018-12-13T16:16:10.958Z,19.90
2018-12-13T16:17:10.974Z,20.00
2018-12-13T16:18:11.733Z,19.10
2018-12-13T16:19:32.002Z,19.60
2018-12-13T16:20:10.990Z,19.00
2018-12-13T16:21:11.013Z,17.30
2018-12-13T16:22:11.012Z,18.90
2018-12-13T16:23:11.034Z,17.20
2018-12-13T16:24:11.034Z,19.60
2018-12-13T16:25:32.057Z,19.60
2018-12-13T16:26:11.062Z,17.80
2018-12-13T16:27:11.074Z,17.80
2018-12-13T16:28:11.230Z,18.50
2018-12-13T16:29:11.084Z,17.40
2018-12-13T16:30:11.094Z,18.70
2018-12-13T16:31:32.119Z,17.20
2018-12-13T16:32:11.122Z,16.90
2018-12-13T16:33:11.122Z,18.00
2018-12-13T16:34:11.133Z,18.00
2018-12-13T16:35:11.150Z,18.20
2018-12-13T16:36:11.161Z,16.90
2018-12-13T16:37:32.217Z,17.30
2018-12-13T16:38:11.183Z,19.00
2018-12-13T16:39:11.297Z,17.10
2018-12-13T16:40:11.193Z,17.60
2018-12-13T16:41:11.212Z,18.20
2018-12-13T16:42:11.219Z,16.70
2018-12-13T16:43:33.662Z,17.30
2018-12-13T16:44:11.231Z,17.30
2018-12-13T16:45:11.247Z,17.00
2018-12-13T16:46:11.251Z,17.20
2018-12-13T16:47:11.262Z,18.00
2018-12-13T16:48:11.282Z,18.10
2018-12-13T16:49:32.293Z,17.80
2018-12-13T16:50:11.304Z,20.10
2018-12-13T16:51:11.308Z,17.60
2018-12-13T16:52:11.314Z,19.10
2018-12-13T16:53:11.321Z,19.30
2018-12-13T16:54:11.341Z,17.50
2018-12-13T16:55:32.384Z,19.50
2018-12-13T16:56:11.357Z,19.10
2018-12-13T16:57:11.361Z,18.40
2018-12-13T16:58:11.370Z,17.10
2018-12-13T16:59:11.384Z,19.00
2018-12-13T17:00:11.401Z,19.30
2018-12-13T17:01:32.410Z,19.10
2018-12-13T17:02:11.408Z,19.20
2018-12-13T17:03:11.416Z,19.50
2018-12-13T17:04:11.436Z,18.80
2018-12-13T17:05:11.442Z,23.00
2018-12-13T17:06:11.462Z,19.80
2018-12-13T17:07:32.468Z,22.60
2018-12-13T17:08:11.481Z,18.70
2018-12-13T17:09:11.480Z,18.80
2018-12-13T17:10:16.773Z,20.50
2018-12-13T17:11:11.511Z,20.50
2018-12-13T17:12:11.521Z,25.40
2018-12-13T17:13:32.531Z,20.70
2018-12-13T17:14:11.527Z,19.90
2018-12-13T17:15:11.536Z,21.20
2018-12-13T17:16:11.553Z,22.20
2018-12-13T17:17:11.556Z,22.80
2018-12-13T17:18:11.568Z,22.30
2018-12-13T17:19:32.588Z,22.20
2018-12-13T17:20:11.614Z,21.30
2018-12-13T17:21:11.598Z,19.10
2018-12-13T17:22:11.612Z,20.40
2018-12-13T17:23:11.627Z,24.40
2018-12-13T17:24:11.639Z,21.00
2018-12-13T17:25:32.650Z,19.80
2018-12-13T17:26:11.644Z,19.40
2018-12-13T17:27:11.664Z,21.20
2018-12-13T17:28:11.674Z,21.60
2018-12-13T17:29:11.685Z,19.10
2018-12-13T17:30:11.690Z,21.10
2018-12-13T17:31:32.705Z,22.10
2018-12-13T17:32:11.706Z,21.10
2018-12-13T17:33:11.715Z,21.80
2018-12-13T17:34:11.729Z,23.10
2018-12-13T17:35:11.732Z,20.20
2018-12-13T17:36:11.746Z,22.70
2018-12-13T17:37:32.775Z,20.70
2018-12-13T17:38:11.774Z,21.40
2018-12-13T17:39:11.790Z,22.70
2018-12-13T17:40:11.796Z,22.90
2018-12-13T17:41:11.794Z,21.60
2018-12-13T17:42:11.873Z,20.00
2018-12-13T17:43:32.823Z,21.50
2018-12-13T17:44:11.874Z,23.00
2018-12-13T17:45:11.832Z,23.00
2018-12-13T17:46:11.868Z,24.50
2018-12-13T17:47:11.859Z,21.00
2018-12-13T17:48:11.864Z,22.10
2018-12-13T17:49:32.888Z,20.50
2018-12-13T17:50:11.882Z,21.50
2018-12-13T17:51:11.888Z,23.20
2018-12-13T17:52:11.916Z,20.30
2018-12-13T17:53:11.925Z,20.20
2018-12-13T17:54:11.920Z,22.50
2018-12-13T17:55:32.950Z,24.00
2018-12-13T17:56:11.947Z,21.20
2018-12-13T17:57:11.952Z,23.50
2018-12-13T17:58:11.972Z,21.70
2018-12-13T17:59:11.971Z,21.80
2018-12-13T18:00:11.990Z,24.00
2018-12-13T18:01:32.999Z,21.30
2018-12-13T18:02:12.001Z,23.10
2018-12-13T18:03:12.007Z,24.00